Time;durP1;ratioP1;P1;durP2;ratioP2;P2;SDS_P1;SDS_P2;PMS_P1;PMS_P2;Temp;Humidity;BMP_temperature;BMP_pressure;BME280_temperature;BME280_humidity;BME280_pressure;Samples;Min_cycle;Max_cycle;Signal;HPM_P1;HPM_P2
2023/09/17 00:00:19;;;;;;;1.50;1.40;;;;;;;;;;6125021;23;20004;-76
2023/09/17 00:02:45;;;;;;;2.15;1.80;;;;;;;;;;6124774;23;20022;-76
2023/09/17 00:05:11;;;;;;;1.40;1.30;;;;;;;;;;6125103;23;20010;-76
2023/09/17 00:07:39;;;;;;;1.50;1.40;;;;;;;;;;6125076;23;20340;-76
2023/09/17 00:10:06;;;;;;;1.92;1.40;;;;;;;;;;6124966;23;20026;-77
2023/09/17 00:12:32;;;;;;;1.45;1.30;;;;;;;;;;6124976;23;20131;-76
2023/09/17 00:14:59;;;;;;;1.15;1.08;;;;;;;;;;6125537;23;20021;-76
2023/09/17 00:17:25;;;;;;;1.45;1.35;;;;;;;;;;6125075;23;20014;-76
2023/09/17 00:19:52;;;;;;;3.22;1.48;;;;;;;;;;6124967;23;19998;-76
2023/09/17 00:22:18;;;;;;;1.48;1.38;;;;;;;;;;6125146;23;20053;-76
2023/09/17 00:24:45;;;;;;;1.48;1.15;;;;;;;;;;6124899;23;19998;-76
2023/09/17 00:27:12;;;;;;;1.05;1.00;;;;;;;;;;6125003;23;20410;-76
2023/09/17 00:29:38;;;;;;;1.40;1.30;;;;;;;;;;6124975;23;20049;-76
2023/09/17 00:32:05;;;;;;;1.58;1.48;;;;;;;;;;6124977;23;20013;-76
2023/09/17 00:34:31;;;;;;;1.35;1.25;;;;;;;;;;6125128;23;20077;-76
2023/09/17 00:37:00;;;;;;;1.65;1.42;;;;;;;;;;6125302;23;20338;-77
2023/09/17 00:39:27;;;;;;;1.25;1.10;;;;;;;;;;6125438;23;20322;-76
2023/09/17 00:41:54;;;;;;;1.63;1.40;;;;;;;;;;6125410;23;20006;-76
2023/09/17 00:44:20;;;;;;;1.50;1.40;;;;;;;;;;6124925;23;20092;-77
2023/09/17 00:46:47;;;;;;;1.60;1.50;;;;;;;;;;6124989;23;20006;-77
2023/09/17 00:49:14;;;;;;;1.48;1.38;;;;;;;;;;6125117;23;20024;-76
2023/09/17 00:51:41;;;;;;;1.42;1.30;;;;;;;;;;6125086;23;20014;-77
2023/09/17 00:54:09;;;;;;;1.58;1.23;;;26.00;64.00;;;;;;6125421;23;20069;-77
2023/09/17 00:56:36;;;;;;;1.30;1.20;;;;;;;;;;6124645;23;20006;-77
2023/09/17 00:59:03;;;;;;;1.42;1.33;;;;;;;;;;6124856;23;20052;-77
2023/09/17 01:01:30;;;;;;;1.55;1.45;;;;;;;;;;6125781;23;20077;-76
2023/09/17 01:03:56;;;;;;;1.38;1.27;;;;;;;;;;6124723;23;20018;-76
2023/09/17 01:06:23;;;;;;;1.10;0.93;;;;;;;;;;6125128;23;20056;-76
2023/09/17 01:08:49;;;;;;;1.35;1.25;;;26.00;64.30;;;;;;6124691;23;20422;-77
2023/09/17 01:11:16;;;;;;;1.50;1.40;;;;;;;;;;6125215;23;20005;-76
2023/09/17 01:13:49;;;;;;;2.45;1.33;;;;;;;;;;6125179;23;20009;-76
2023/09/17 01:16:19;;;;;;;1.52;1.33;;;;;;;;;;6125494;23;20029;-76
2023/09/17 01:18:45;;;;;;;1.40;1.30;;;;;;;;;;6125023;23;20029;-76
2023/09/17 01:21:22;;;;;;;1.25;1.15;;;26.00;58.50;;;;;;6134504;23;19998;-76
2023/09/17 01:24:15;;;;;;;1.20;1.10;;;25.90;63.70;;;;;;6134483;23;20434;-77
2023/09/17 01:26:44;;;;;;;1.40;1.30;;;26.00;64.10;;;;;;6054794;23;20064;-76
2023/09/17 01:29:13;;;;;;;1.23;1.13;;;25.90;63.80;;;;;;6134893;23;20481;-77
2023/09/17 01:31:40;;;;;;;1.08;1.08;;;;;;;;;;6134132;23;20331;-76
2023/09/17 01:34:06;;;;;;;1.30;1.20;;;;;;;;;;6134328;23;20445;-76
2023/09/17 01:36:35;;;;;;;1.30;1.20;;;25.80;64.20;;;;;;6133975;23;20006;-75
2023/09/17 01:39:06;;;;;;;1.65;1.50;;;25.90;64.20;;;;;;6134073;23;19994;-76
2023/09/17 01:41:36;;;;;;;1.58;1.48;;;25.80;64.10;;;;;;6134186;23;20002;-76
2023/09/17 01:44:03;;;;;;;;;;;25.80;64.90;;;;;;6134704;23;19994;-76
2023/09/17 01:46:30;;;;;;;1.55;1.45;;;25.90;62.60;;;;;;6124727;23;20013;-76
2023/09/17 01:48:56;;;;;;;1.40;1.30;;;;;;;;;;6134198;23;19998;-76
2023/09/17 01:51:23;;;;;;;1.30;1.20;;;;;;;;;;6134365;23;20002;-76
2023/09/17 01:53:50;;;;;;;1.42;1.33;;;;;;;;;;6124351;23;20110;-76
2023/09/17 01:56:17;;;;;;;1.38;1.27;;;;;;;;;;6134301;23;20446;-76
2023/09/17 01:58:43;;;;;;;1.42;1.20;;;;;;;;;;6134970;23;19994;-76
2023/09/17 02:01:09;;;;;;;1.50;1.40;;;;;;;;;;6134467;23;20434;-77
2023/09/17 02:03:35;;;;;;;1.40;1.30;;;;;;;;;;6134715;23;20041;-76
2023/09/17 02:06:04;;;;;;;1.60;1.38;;;25.90;64.60;;;;;;6134449;23;20126;-76
2023/09/17 02:08:30;;;;;;;1.33;1.20;;;;;;;;;;6125145;23;20306;-76
2023/09/17 02:10:57;;;;;;;1.63;1.45;;;;;;;;;;6124916;23;20085;-77
2023/09/17 02:13:24;;;;;;;1.50;1.17;;;;;;;;;;6125534;23;20025;-77
2023/09/17 02:15:50;;;;;;;1.17;1.08;;;;;;;;;;6125092;23;20076;-76
2023/09/17 02:18:17;;;;;;;1.42;1.33;;;;;;;;;;6124596;23;20061;-76
2023/09/17 02:20:44;;;;;;;1.23;1.13;;;;;;;;;;6124890;23;20330;-77
2023/09/17 02:23:10;;;;;;;1.10;1.00;;;;;;;;;;6124591;23;20129;-76
2023/09/17 02:25:37;;;;;;;1.58;1.48;;;;;;;;;;6124795;23;19998;-76
2023/09/17 02:28:04;;;;;;;1.15;1.15;;;;;;;;;;6124967;23;20012;-77
2023/09/17 02:30:31;;;;;;;1.42;1.20;;;;;;;;;;6124497;23;20025;-75
2023/09/17 02:32:57;;;;;;;1.38;1.27;;;;;;;;;;6124860;23;20061;-75
2023/09/17 02:35:23;;;;;;;1.27;1.17;;;;;;;;;;6124806;23;20464;-76
2023/09/17 02:37:50;;;;;;;1.40;1.27;;;;;;;;;;6135431;23;20481;-76
2023/09/17 02:40:16;;;;;;;1.10;1.00;;;;;;;;;;6136071;23;20326;-76
2023/09/17 02:42:44;;;;;;;1.10;1.00;;;25.60;64.40;;;;;;6136064;23;20358;-77
2023/09/17 02:45:11;;;;;;;1.20;1.10;;;;;;;;;;6136392;23;20052;-76
2023/09/17 02:47:40;;;;;;;1.27;1.17;;;;;;;;;;6136195;23;20094;-76
2023/09/17 02:50:06;;;;;;;1.48;1.38;;;;;;;;;;6135942;23;19998;-76
2023/09/17 02:52:33;;;;;;;1.52;1.23;;;;;;;;;;6126521;23;20013;-76
2023/09/17 02:54:59;;;;;;;1.25;1.17;;;;;;;;;;6127258;23;20002;-77
2023/09/17 02:57:26;;;;;;;1.00;1.00;;;;;;;;;;6126124;23;20100;-77
2023/09/17 02:59:52;;;;;;;1.65;1.30;;;;;;;;;;6126315;23;19998;-77
2023/09/17 03:02:19;;;;;;;1.33;1.20;;;;;;;;;;6126383;23;20014;-76
2023/09/17 03:04:45;;;;;;;1.15;1.02;;;;;;;;;;6136207;23;20022;-76
2023/09/17 03:07:11;;;;;;;1.40;1.30;;;;;;;;;;6136264;23;20025;-76
2023/09/17 03:09:38;;;;;;;2.03;1.30;;;;;;;;;;6136137;23;20052;-76
2023/09/17 03:12:04;;;;;;;1.33;1.23;;;25.50;62.70;;;;;;6131942;23;20362;-76
2023/09/17 03:14:30;;;;;;;1.17;1.10;;;;;;;;;;6135952;23;20014;-76
2023/09/17 03:16:56;;;;;;;1.40;1.30;;;;;;;;;;6135822;23;20452;-76
2023/09/17 03:19:23;;;;;;;1.60;1.50;;;;;;;;;;6135885;23;20080;-76
2023/09/17 03:21:49;;;;;;;1.85;1.60;;;;;;;;;;6135763;23;19998;-76
2023/09/17 03:24:15;;;;;;;1.48;1.38;;;;;;;;;;6135991;23;20021;-76
2023/09/17 03:26:41;;;;;;;1.25;1.00;;;;;;;;;;6125794;23;20006;-76
2023/09/17 03:29:07;;;;;;;1.58;1.30;;;;;;;;;;6125865;23;20476;-76
2023/09/17 03:31:34;;;;;;;1.65;1.50;;;25.40;65.00;;;;;;6126020;23;20009;-76
2023/09/17 03:34:00;;;;;;;1.23;1.13;;;;;;;;;;6135832;23;20001;-76
2023/09/17 03:36:26;;;;;;;1.20;1.10;;;;;;;;;;6135582;23;20009;-76
2023/09/17 03:38:52;;;;;;;0.90;0.90;;;;;;;;;;6126139;23;20093;-76
2023/09/17 03:41:18;;;;;;;1.25;1.15;;;;;;;;;;6135429;23;20029;-76
2023/09/17 03:43:45;;;;;;;1.35;1.25;;;25.30;64.70;;;;;;6135513;23;19998;-75
2023/09/17 03:46:11;;;;;;;2.45;1.20;;;;;;;;;;6135377;23;20025;-76
2023/09/17 03:48:39;;;;;;;1.33;1.23;;;;;;;;;;6135191;23;19998;-77
2023/09/17 03:51:06;;;;;;;1.05;1.02;;;;;;;;;;6135408;23;20021;-77
2023/09/17 03:53:32;;;;;;;1.15;1.10;;;;;;;;;;6135774;23;19998;-76
2023/09/17 03:55:58;;;;;;;1.52;1.20;;;;;;;;;;6135114;23;19998;-76
2023/09/17 03:58:24;;;;;;;1.13;1.10;;;;;;;;;;6135361;23;20048;-76
2023/09/17 04:00:50;;;;;;;1.30;1.20;;;;;;;;;;6135363;23;19998;-76
2023/09/17 04:03:19;;;;;;;1.30;1.20;;;;;;;;;;6135104;23;20441;-77
2023/09/17 04:05:46;;;;;;;1.63;1.50;;;25.20;64.70;;;;;;6135439;23;20307;-76
2023/09/17 04:08:12;;;;;;;0.90;0.90;;;;;;;;;;6135337;23;20058;-77
2023/09/17 04:10:39;;;;;;;1.20;1.10;;;;;;;;;;6135213;23;20001;-76
2023/09/17 04:13:05;;;;;;;1.20;1.10;;;;;;;;;;6134933;23;19998;-76
2023/09/17 04:15:31;;;;;;;1.02;1.02;;;;;;;;;;6135054;23;20005;-76
2023/09/17 04:17:57;;;;;;;1.38;1.27;;;;;;;;;;6125766;23;20426;-76
2023/09/17 04:20:24;;;;;;;0.93;0.93;;;;;;;;;;6135680;23;20422;-76
2023/09/17 04:22:50;;;;;;;1.00;0.90;;;25.10;63.90;;;;;;6125467;23;20012;-76
2023/09/17 04:25:18;;;;;;;1.13;1.02;;;25.20;64.30;;;;;;6135330;23;20408;-76
2023/09/17 04:27:46;;;;;;;1.95;1.20;;;25.10;61.30;;;;;;6135186;23;19997;-76
2023/09/17 04:30:16;;;;;;;1.20;1.10;;;25.10;62.60;;;;;;6135215;23;20025;-76
2023/09/17 04:32:43;;;;;;;1.05;0.90;;;25.20;63.40;;;;;;6125200;23;19994;-76
2023/09/17 04:35:12;;;;;;;1.05;1.00;;;25.00;62.80;;;;;;6134978;23;20048;-76
2023/09/17 04:37:40;;;;;;;0.80;0.80;;;25.10;65.10;;;;;;6134724;23;20064;-76
2023/09/17 04:40:11;;;;;;;1.38;1.13;;;;;;;;;;6134835;23;20004;-76
2023/09/17 04:42:38;;;;;;;2.10;1.17;;;;;;;;;;6134960;23;19998;-76
2023/09/17 04:45:04;;;;;;;1.23;1.13;;;;;;;;;;6134724;23;20021;-76
2023/09/17 04:47:34;;;;;;;1.30;1.20;;;25.10;62.10;;;;;;6098877;23;20493;-76
2023/09/17 04:50:00;;;;;;;1.10;1.10;;;;;;;;;;6125761;23;20078;-76
2023/09/17 04:52:26;;;;;;;1.65;1.52;;;;;;;;;;6134716;23;20399;-76
2023/09/17 04:54:52;;;;;;;1.30;1.20;;;;;;;;;;6134766;23;20044;-76
2023/09/17 04:57:18;;;;;;;1.38;1.27;;;;;;;;;;6134753;23;20096;-76
2023/09/17 04:59:44;;;;;;;1.60;1.50;;;;;;;;;;6134487;23;19994;-76
2023/09/17 05:02:10;;;;;;;1.80;1.70;;;;;;;;;;6134223;23;20369;-75
2023/09/17 05:04:36;;;;;;;1.70;1.60;;;;;;;;;;6134376;23;20073;-75
2023/09/17 05:07:03;;;;;;;2.08;1.80;;;;;;;;;;6134274;23;20041;-75
2023/09/17 05:09:29;;;;;;;1.67;1.58;;;;;;;;;;6124487;23;20414;-75
2023/09/17 05:11:55;;;;;;;2.60;2.40;;;;;;;;;;6125095;23;20334;-76
2023/09/17 05:14:21;;;;;;;1.98;1.88;;;;;;;;;;6134676;23;20469;-76
2023/09/17 05:16:47;;;;;;;2.40;2.30;;;;;;;;;;6134380;23;20010;-76
2023/09/17 05:19:13;;;;;;;2.35;2.25;;;;;;;;;;6135222;23;20008;-76
2023/09/17 05:21:39;;;;;;;2.75;2.55;;;;;;;;;;6134394;23;20005;-77
2023/09/17 05:24:05;;;;;;;2.78;2.58;;;;;;;;;;6134464;23;20001;-76
2023/09/17 05:26:31;;;;;;;2.88;2.50;;;;;;;;;;6124563;23;20085;-76
2023/09/17 05:28:57;;;;;;;2.85;2.60;;;;;;;;;;6134433;23;20029;-76
2023/09/17 05:31:23;;;;;;;2.65;2.45;;;;;;;;;;6134415;23;19998;-76
2023/09/17 05:33:50;;;;;;;3.03;2.83;;;;;;;;;;6124840;23;20042;-77
2023/09/17 05:36:16;;;;;;;3.20;3.00;;;;;;;;;;6124452;23;20012;-77
2023/09/17 05:38:42;;;;;;;3.33;3.13;;;;;;;;;;6134408;23;20021;-77
2023/09/17 05:41:10;;;;;;;3.63;3.33;;;;;;;;;;6134353;23;19994;-77
2023/09/17 05:43:36;;;;;;;3.42;3.13;;;;;;;;;;6125067;23;20013;-76
2023/09/17 05:46:02;;;;;;;3.35;3.10;;;;;;;;;;6124915;23;20002;-76
2023/09/17 05:48:29;;;;;;;3.25;2.92;;;;;;;;;;6134483;23;20438;-77
2023/09/17 05:50:55;;;;;;;3.58;3.35;;;;;;;;;;6124863;23;20006;-76
2023/09/17 05:53:21;;;;;;;3.55;3.33;;;;;;;;;;6134425;23;20433;-76
2023/09/17 05:55:47;;;;;;;3.47;3.25;;;;;;;;;;6134370;23;20005;-76
2023/09/17 05:58:12;;;;;;;3.22;3.03;;;;;;;;;;6135297;23;20006;-76
2023/09/17 06:00:38;;;;;;;3.13;2.90;;;;;;;;;;6134512;23;19994;-77
2023/09/17 06:03:05;;;;;;;3.35;3.00;;;;;;;;;;6134133;23;20010;-77
2023/09/17 06:05:31;;;;;;;3.08;2.88;;;;;;;;;;6134984;23;20006;-77
2023/09/17 06:07:57;;;;;;;3.13;2.83;;;;;;;;;;6134314;23;20077;-77
2023/09/17 06:10:23;;;;;;;2.78;2.58;;;;;;;;;;6134322;23;20001;-77
2023/09/17 06:12:49;;;;;;;3.03;2.83;;;;;;;;;;6126006;23;20357;-77
2023/09/17 06:15:15;;;;;;;2.83;2.63;;;;;;;;;;6136099;23;20002;-76
2023/09/17 06:17:41;;;;;;;2.97;2.70;;;24.70;64.70;;;;;;6136005;23;20017;-76
2023/09/17 06:20:08;;;;;;;2.90;2.70;;;;;;;;;;6136105;23;20029;-77
2023/09/17 06:22:34;;;;;;;2.95;2.75;;;;;;;;;;6135967;23;20008;-76
2023/09/17 06:25:00;;;;;;;2.83;2.63;;;;;;;;;;6135815;23;20001;-76
2023/09/17 06:27:26;;;;;;;3.10;2.88;;;;;;;;;;6136060;23;20002;-76
2023/09/17 06:29:52;;;;;;;3.10;2.83;;;;;;;;;;6135871;23;19998;-76
2023/09/17 06:32:18;;;;;;;2.85;2.65;;;;;;;;;;6135868;23;19998;-76
2023/09/17 06:34:44;;;;;;;2.70;2.50;;;;;;;;;;6135823;23;20021;-75
2023/09/17 06:37:11;;;;;;;2.70;2.50;;;;;;;;;;6125772;23;20481;-75
2023/09/17 06:39:37;;;;;;;2.47;2.28;;;;;;;;;;6135841;23;20330;-75
2023/09/17 06:42:03;;;;;;;1.90;1.80;;;;;;;;;;6126056;23;20322;-76
2023/09/17 06:44:29;;;;;;;2.20;2.10;;;;;;;;;;6135791;23;20436;-76
2023/09/17 06:46:55;;;;;;;2.10;2.00;;;;;;;;;;6135627;23;20029;-76
2023/09/17 06:49:21;;;;;;;2.10;2.00;;;;;;;;;;6135559;23;20002;-76
2023/09/17 06:51:48;;;;;;;2.60;1.90;;;;;;;;;;6136094;23;20008;-76
2023/09/17 06:54:14;;;;;;;1.95;1.85;;;;;;;;;;6126190;23;20009;-78
2023/09/17 06:56:40;;;;;;;1.98;1.80;;;;;;;;;;6135725;23;20018;-77
2023/09/17 06:59:06;;;;;;;2.10;1.90;;;;;;;;;;6135766;23;20005;-78
2023/09/17 07:01:33;;;;;;;1.75;1.65;;;;;;;;;;6135758;23;20002;-78
2023/09/17 07:03:59;;;;;;;1.60;1.50;;;;;;;;;;6099956;23;20068;-76
2023/09/17 07:06:25;;;;;;;2.05;1.85;;;;;;;;;;6135924;23;20452;-78
2023/09/17 07:08:53;;;;;;;1.83;1.60;;;;;;;;;;6126080;23;20006;-78
2023/09/17 07:11:19;;;;;;;1.75;1.65;;;;;;;;;;6126282;23;20049;-77
2023/09/17 07:13:46;;;;;;;1.58;1.48;;;;;;;;;;6126231;23;20450;-77
2023/09/17 07:16:13;;;;;;;1.58;1.48;;;;;;;;;;6125766;23;20445;-76
2023/09/17 07:18:39;;;;;;;1.42;1.33;;;;;;;;;;6126749;23;20426;-79
2023/09/17 07:21:06;;;;;;;2.70;1.52;;;;;;;;;;6125879;23;20064;-76
2023/09/17 07:23:32;;;;;;;1.83;1.73;;;;;;;;;;6135550;23;19994;-75
2023/09/17 07:25:58;;;;;;;1.50;1.40;;;;;;;;;;6126057;23;20041;-75
2023/09/17 07:28:24;;;;;;;1.88;1.30;;;;;;;;;;6135768;23;20020;-75
2023/09/17 07:30:55;;;;;;;1.30;1.23;;;24.50;59.70;;;;;;6135698;23;20002;-74
2023/09/17 07:33:21;;;;;;;1.40;1.30;;;;;;;;;;6126170;23;20329;-77
2023/09/17 07:35:47;;;;;;;1.33;1.23;;;;;;;;;;6135630;23;20448;-76
2023/09/17 07:38:13;;;;;;;1.85;1.45;;;;;;;;;;6135614;23;20006;-76
2023/09/17 07:40:39;;;;;;;2.42;1.42;;;;;;;;;;6126504;23;20064;-76
2023/09/17 07:43:06;;;;;;;1.30;1.20;;;;;;;;;;6135736;23;20006;-76
2023/09/17 07:45:33;;;;;;;1.35;1.25;;;;;;;;;;6135530;23;20445;-75
2023/09/17 07:48:00;;;;;;;1.20;1.10;;;;;;;;;;6135440;23;20029;-75
2023/09/17 07:50:26;;;;;;;1.67;1.40;;;;;;;;;;6135286;23;20013;-75
2023/09/17 07:52:52;;;;;;;1.52;1.02;;;;;;;;;;6126097;23;20010;-76
2023/09/17 07:55:20;;;;;;;1.35;1.25;;;;;;;;;;6125427;23;20433;-76
2023/09/17 07:57:46;;;;;;;1.30;1.20;;;;;;;;;;6135323;23;20006;-75
2023/09/17 08:00:15;;;;;;;1.17;1.05;;;;;;;;;;6135330;23;20073;-75
2023/09/17 08:02:42;;;;;;;1.27;1.17;;;;;;;;;;6135091;23;20362;-75
2023/09/17 08:05:09;;;;;;;1.27;1.10;;;;;;;;;;6126105;23;20002;-74
2023/09/17 08:07:40;;;;;;;1.23;1.13;;;;;;;;;;6125815;23;20008;-75
2023/09/17 08:10:07;;;;;;;3.28;0.95;;;;;;;;;;6125336;23;20160;-75
2023/09/17 08:12:33;;;;;;;1.33;1.13;;;;;;;;;;6125709;23;20069;-75
2023/09/17 08:15:00;;;;;;;1.67;1.02;;;;;;;;;;6126240;23;20057;-75
2023/09/17 08:17:27;;;;;;;1.13;0.98;;;;;;;;;;6125543;23;20017;-75
2023/09/17 08:19:54;;;;;;;1.25;1.15;;;;;;;;;;6135097;23;20024;-75
2023/09/17 08:22:21;;;;;;;1.30;1.20;;;;;;;;;;6135203;23;20002;-75
2023/09/17 08:24:47;;;;;;;1.48;1.20;;;;;;;;;;6125542;23;20311;-76
2023/09/17 08:27:16;;;;;;;4.05;1.38;;;;;;;;;;6125657;23;20333;-75
2023/09/17 08:29:43;;;;;;;1.67;0.98;;;;;;;;;;6125614;23;19998;-75
2023/09/17 08:32:11;;;;;;;1.58;1.30;;;;;;;;;;6125555;23;20061;-75
2023/09/17 08:34:37;;;;;;;2.13;1.45;;;;;;;;;;6125068;23;20442;-75
2023/09/17 08:37:04;;;;;;;1.63;1.30;;;;;;;;;;6125490;23;20010;-74
2023/09/17 08:39:31;;;;;;;2.35;1.27;;;;;;;;;;6125251;23;20021;-75
2023/09/17 08:41:59;;;;;;;1.42;1.20;;;24.20;65.90;;;;;;6125283;23;20012;-75
2023/09/17 08:44:27;;;;;;;1.58;1.23;;;24.30;65.70;;;;;;6126109;23;20385;-74
2023/09/17 08:46:57;;;;;;;1.83;1.35;;;24.30;65.90;;;;;;6125463;23;20029;-74
2023/09/17 08:49:24;;;;;;;1.95;1.63;;;;;;;;;;6125309;23;20002;-73
2023/09/17 08:51:55;;;;;;;1.77;1.50;;;24.30;66.10;;;;;;6125331;23;20373;-73
2023/09/17 08:54:25;;;;;;;5.50;1.17;;;24.30;66.00;;;;;;6125165;23;20457;-74
2023/09/17 08:56:54;;;;;;;0.98;0.98;;;24.20;66.10;;;;;;6125099;23;20488;-74
2023/09/17 08:59:26;;;;;;;1.35;1.25;;;24.20;66.40;;;;;;6124857;23;20484;-74
2023/09/17 09:01:54;;;;;;;1.48;1.20;;;24.20;66.60;;;;;;6125040;23;20065;-74
2023/09/17 09:04:22;;;;;;;2.25;1.10;;;24.20;66.50;;;;;;6125270;23;20002;-74
2023/09/17 09:06:48;;;;;;;1.20;1.10;;;;;;;;;;6125202;23;20005;-74
2023/09/17 09:09:21;;;;;;;0.82;0.82;;;24.20;60.50;;;;;;6125124;23;20073;-74
2023/09/17 09:11:48;;;;;;;1.08;0.88;;;24.20;66.50;;;;;;6124762;23;19994;-74
2023/09/17 09:14:15;;;;;;;1.20;1.10;;;;;;;;;;6124956;23;20326;-74
2023/09/17 09:16:41;;;;;;;1.52;1.10;;;;;;;;;;6134242;23;20013;-76
2023/09/17 09:19:07;;;;;;;1.38;1.23;;;;;;;;;;6134300;23;19994;-73
2023/09/17 09:21:33;;;;;;;1.20;1.10;;;;;;;;;;6124540;23;20010;-72
2023/09/17 09:23:59;;;;;;;1.20;1.10;;;;;;;;;;6136223;23;20018;-74
2023/09/17 09:26:38;;;;;;;1.33;1.10;;;21.80;59.30;;;;;;6135910;23;20333;-77
2023/09/17 09:29:06;;;;;;;1.25;1.15;;;24.20;66.50;;;;;;6134420;23;19998;-75
2023/09/17 09:31:33;;;;;;;1.40;0.82;;;24.20;66.90;;;;;;6124807;23;20045;-75
2023/09/17 09:34:00;;;;;;;1.42;1.30;;;;;;;;;;6134521;23;19998;-75
2023/09/17 09:36:30;;;;;;;1.40;1.23;;;;;;;;;;6134055;23;20016;-74
2023/09/17 09:38:57;;;;;;;1.42;1.30;;;;;;;;;;6124922;23;19998;-75
2023/09/17 09:41:26;;;;;;;1.95;1.52;;;24.20;61.00;;;;;;6124817;23;20029;-75
2023/09/17 09:43:53;;;;;;;1.48;1.38;;;;;;;;;;6124964;23;20002;-75
2023/09/17 09:46:20;;;;;;;1.40;1.25;;;;;;;;;;6125489;23;20102;-74
2023/09/17 09:48:47;;;;;;;1.83;1.45;;;;;;;;;;6128155;23;20002;-74
2023/09/17 09:51:16;;;;;;;1.52;1.42;;;24.20;67.20;;;;;;6127706;23;20002;-74
2023/09/17 09:53:43;;;;;;;1.58;1.45;;;;;;;;;;6127731;23;20022;-74
2023/09/17 09:56:10;;;;;;;3.05;1.33;;;;;;;;;;6127764;23;20027;-74
2023/09/17 09:58:36;;;;;;;1.48;1.38;;;;;;;;;;6102462;23;20037;-74
2023/09/17 10:01:04;;;;;;;1.42;1.20;;;24.20;67.00;;;;;;6127757;23;20002;-74
2023/09/17 10:03:30;;;;;;;1.67;1.40;;;;;;;;;;6127499;23;20013;-74
2023/09/17 10:06:04;;;;;;;1.92;1.50;;;24.20;67.30;;;;;;6127904;23;20025;-74
2023/09/17 10:08:30;;;;;;;2.10;1.70;;;;;;;;;;6137673;23;20002;-73
2023/09/17 10:10:56;;;;;;;2.22;1.45;;;;;;;;;;6137357;23;20057;-74
2023/09/17 10:13:22;;;;;;;2.15;1.95;;;;;;;;;;6137426;23;20073;-73
2023/09/17 10:15:48;;;;;;;3.10;1.55;;;;;;;;;;6101734;23;20002;-73
2023/09/17 10:18:15;;;;;;;1.67;1.58;;;24.20;64.60;;;;;;6127871;23;20311;-73
2023/09/17 10:20:42;;;;;;;2.20;1.48;;;;;;;;;;6137574;23;19997;-74
2023/09/17 10:23:09;;;;;;;1.85;1.70;;;;;;;;;;6137414;23;20068;-74
2023/09/17 10:25:35;;;;;;;2.65;1.83;;;;;;;;;;6137509;23;20005;-74
2023/09/17 10:28:02;;;;;;;1.90;1.60;;;24.20;67.60;;;;;;6137550;23;20438;-76
2023/09/17 10:30:29;;;;;;;2.40;1.67;;;24.20;67.60;;;;;;6127974;23;19998;-75
2023/09/17 10:32:57;;;;;;;2.40;2.15;;;24.20;67.70;;;;;;6137480;23;19998;-76
2023/09/17 10:35:23;;;;;;;2.85;1.98;;;;;;;;;;6137533;23;20002;-76
2023/09/17 10:37:50;;;;;;;2.38;1.85;;;24.20;64.90;;;;;;6137457;23;20333;-77
2023/09/17 10:40:16;;;;;;;3.33;2.28;;;;;;;;;;6137453;23;20002;-75
2023/09/17 10:42:44;;;;;;;2.42;2.05;;;24.20;67.80;;;;;;6137492;23;20022;-75
2023/09/17 10:45:10;;;;;;;3.17;2.10;;;24.20;64.80;;;;;;6127455;23;20457;-74
2023/09/17 10:47:39;;;;;;;2.67;2.13;;;24.20;68.00;;;;;;6128086;23;20378;-73
2023/09/17 10:50:06;;;;;;;2.58;2.20;;;24.20;65.20;;;;;;6137466;23;20005;-82
2023/09/17 10:52:32;;;;;;;3.03;2.17;;;;;;;;;;6138013;23;20022;-79
2023/09/17 10:54:58;;;;;;;4.20;2.35;;;;;;;;;;6138676;23;20074;-77
2023/09/17 10:57:40;;;;;;;5.25;2.40;;;24.20;62.50;;;;;;6136988;23;20017;-77
2023/09/17 11:00:13;;;;;;;5.75;2.45;;;24.20;68.20;;;;;;6126367;23;20018;-74
2023/09/17 11:02:45;;;;;;;4.03;2.53;;;24.20;68.20;;;;;;6125620;23;20026;-75
2023/09/17 11:05:14;;;;;;;2.88;2.50;;;24.20;68.40;;;;;;6125955;23;20115;-76
2023/09/17 11:07:41;;;;;;;2.38;1.95;;;;;;;;;;6126041;23;20069;-74
2023/09/17 11:10:09;;;;;;;3.63;2.42;;;;;;;;;;6125933;23;20002;-75
2023/09/17 11:12:36;;;;;;;2.95;2.40;;;;;;;;;;6125867;23;20006;-75
2023/09/17 11:15:02;;;;;;;4.15;2.78;;;;;;;;;;6126131;23;20109;-72
2023/09/17 11:17:33;;;;;;;4.80;2.80;;;24.30;62.80;;;;;;6125473;23;20010;-73
2023/09/17 11:19:59;;;;;;;4.15;2.40;;;;;;;;;;6125678;23;19993;-76
2023/09/17 11:22:30;;;;;;;3.00;2.72;;;24.20;68.70;;;;;;6125797;23;20009;-75
2023/09/17 11:24:56;;;;;;;3.83;2.50;;;;;;;;;;6125877;23;19994;-74
2023/09/17 11:27:43;;;;;;;5.40;3.00;;;24.20;68.80;;;;;;6126123;23;20378;-75
2023/09/17 11:30:15;;;;;;;5.85;3.38;;;24.00;68.90;;;;;;6126123;23;20378;-74
2023/09/17 11:32:53;;;;;;;3.88;2.70;;;24.20;68.60;;;;;;6126120;23;20005;-75
2023/09/17 11:35:24;;;;;;;4.72;3.63;;;24.20;63.00;;;;;;6126101;23;20026;-76
2023/09/17 11:37:51;;;;;;;7.38;3.13;;;24.20;68.70;;;;;;6125803;23;20017;-75
2023/09/17 11:40:19;;;;;;;6.60;3.58;;;;;;;;;;6126059;23;20025;-74
2023/09/17 11:42:46;;;;;;;6.63;3.70;;;24.20;69.10;;;;;;6125801;23;20013;-75
2023/09/17 11:45:14;;;;;;;5.75;3.20;;;24.30;69.00;;;;;;6125294;23;20421;-75
2023/09/17 11:47:40;;;;;;;6.80;2.97;;;;;;;;;;6126053;23;20333;-75
2023/09/17 11:50:08;;;;;;;3.45;2.70;;;24.30;66.50;;;;;;6125789;23;19998;-76
2023/09/17 11:52:35;;;;;;;5.65;3.22;;;;;;;;;;6125801;23;20437;-76
2023/09/17 11:55:07;;;;;;;5.70;3.30;;;;;;;;;;6125992;23;19998;-76
2023/09/17 11:57:34;;;;;;;5.80;3.20;;;;;;;;;;6126141;23;20081;-76
2023/09/17 12:00:00;;;;;;;7.60;3.63;;;;;;;;;;6125908;23;20069;-76
2023/09/17 12:02:27;;;;;;;4.85;3.10;;;24.30;67.20;;;;;;6125351;23;20029;-75
2023/09/17 12:04:54;;;;;;;3.90;2.72;;;24.20;69.00;;;;;;6125723;23;20021;-75
2023/09/17 12:07:22;;;;;;;3.85;3.22;;;;;;;;;;6125772;23;20016;-76
2023/09/17 12:10:00;;;;;;;3.53;2.63;;;24.20;69.00;;;;;;6125173;23;20009;-73
2023/09/17 12:12:34;;;;;;;4.57;2.78;;;24.30;63.40;;;;;;6125264;23;20434;-73
2023/09/17 12:15:04;;;;;;;5.72;3.65;;;24.30;66.20;;;;;;6125563;23;20006;-73
2023/09/17 12:17:33;;;;;;;;;;;24.30;69.50;;;;;;6126054;23;20010;-73
2023/09/17 12:20:12;;;;;;;3.78;3.00;;;;;;;;;;6125629;23;20273;-74
2023/09/17 12:22:39;;;;;;;5.13;3.20;;;24.30;67.60;;;;;;6125578;23;19998;-73
2023/09/17 12:25:16;;;;;;;4.20;2.85;;;;;;;;;;6125458;23;20002;-74
2023/09/17 12:27:46;;;;;;;3.17;2.45;;;24.30;63.40;;;;;;6126267;23;20002;-75
2023/09/17 12:30:16;;;;;;;4.35;2.95;;;24.20;69.10;;;;;;6125199;23;20073;-75
2023/09/17 12:32:42;;;;;;;3.85;2.33;;;;;;;;;;6125493;23;20005;-75
2023/09/17 12:35:09;;;;;;;3.20;2.67;;;;;;;;;;6125480;23;20389;-75
2023/09/17 12:37:35;;;;;;;4.47;2.92;;;;;;;;;;6125139;23;20044;-74
2023/09/17 12:40:02;;;;;;;4.45;2.92;;;;;;;;;;6125414;23;20559;-74
2023/09/17 12:42:30;;;;;;;4.32;3.00;;;;;;;;;;6125293;23;20056;-73
2023/09/17 12:44:57;;;;;;;3.90;2.65;;;;;;;;;;6125222;23;20005;-73
2023/09/17 12:47:24;;;;;;;3.60;3.03;;;;;;;;;;6125272;23;20056;-73
2023/09/17 12:49:53;;;;;;;3.75;2.80;;;;;;;;;;6124818;23;20002;-74
2023/09/17 12:52:19;;;;;;;2.90;2.47;;;;;;;;;;6124836;23;20002;-73
2023/09/17 12:54:45;;;;;;;3.85;2.88;;;;;;;;;;6125795;23;19999;-75
2023/09/17 12:57:12;;;;;;;5.10;2.88;;;;;;;;;;6125062;23;20010;-75
2023/09/17 12:59:38;;;;;;;3.28;2.72;;;;;;;;;;6125384;23;19998;-75
2023/09/17 13:02:06;;;;;;;3.90;2.92;;;24.30;69.10;;;;;;6124697;23;20009;-75
2023/09/17 13:04:43;;;;;;;3.85;2.75;;;24.40;63.50;;;;;;6125160;23;19998;-75
2023/09/17 13:07:17;;;;;;;4.70;3.05;;;24.40;63.60;;;;;;6134581;23;20005;-74
2023/09/17 13:09:45;;;;;;;5.15;2.70;;;24.40;69.50;;;;;;6099218;23;20425;-73
2023/09/17 13:12:11;;;;;;;3.00;2.20;;;;;;;;;;6125056;23;20329;-74
2023/09/17 13:14:38;;;;;;;3.83;2.67;;;;;;;;;;6134493;23;20064;-74
2023/09/17 13:17:04;;;;;;;3.03;2.60;;;;;;;;;;6124974;23;20013;-74
2023/09/17 13:19:31;;;;;;;5.30;3.00;;;;;;;;;;6134374;23;20072;-74
2023/09/17 13:21:57;;;;;;;4.38;2.97;;;;;;;;;;6134050;23;20013;-73
2023/09/17 13:24:23;;;;;;;2.45;2.25;;;;;;;;;;6135080;23;20022;-75
2023/09/17 13:26:49;;;;;;;2.88;2.40;;;;;;;;;;6134578;23;20002;-76
2023/09/17 13:29:15;;;;;;;2.88;2.58;;;;;;;;;;6134608;23;19998;-75
2023/09/17 13:31:41;;;;;;;3.45;2.47;;;;;;;;;;6124921;23;20409;-75
2023/09/17 13:34:08;;;;;;;2.53;2.30;;;24.30;67.20;;;;;;6134424;23;20458;-75
2023/09/17 13:36:34;;;;;;;2.97;2.28;;;;;;;;;;6134296;23;20126;-75
2023/09/17 13:39:01;;;;;;;3.40;2.60;;;;;;;;;;6134305;23;20037;-75
2023/09/17 13:41:30;;;;;;;3.40;2.75;;;24.30;69.10;;;;;;6134503;23;20005;-75
2023/09/17 13:43:57;;;;;;;3.88;2.67;;;24.30;66.20;;;;;;6125152;23;20449;-77
2023/09/17 13:46:24;;;;;;;5.40;3.00;;;;;;;;;;6125144;23;20054;-76
2023/09/17 13:48:54;;;;;;;4.13;3.10;;;24.40;63.70;;;;;;6124919;23;20006;-79
2023/09/17 13:51:20;;;;;;;3.77;3.30;;;;;;;;;;6134396;23;20362;-76
2023/09/17 13:53:47;;;;;;;4.60;3.65;;;;;;;;;;6124493;23;20230;-75
2023/09/17 13:56:13;;;;;;;7.90;4.10;;;;;;;;;;6124420;23;20088;-76
2023/09/17 13:58:40;;;;;;;5.65;3.42;;;;;;;;;;6124906;23;20006;-78
2023/09/17 14:01:06;;;;;;;4.78;3.30;;;;;;;;;;6124360;23;20002;-75
2023/09/17 14:03:32;;;;;;;6.63;4.28;;;;;;;;;;6134083;23;20069;-77
2023/09/17 14:05:58;;;;;;;5.57;3.85;;;;;;;;;;6134351;23;20005;-76
2023/09/17 14:08:24;;;;;;;6.68;4.40;;;;;;;;;;6124798;23;19998;-75
2023/09/17 14:10:51;;;;;;;6.00;3.47;;;;;;;;;;6127389;23;20002;-74